Terminal Aerodrome Forecast
Issued by NWS

Home | Current Version | Previous Version | Graphics & Text | Print | Product List | Glossary On
Versions: 1 2 3 4 5 6 7 8 9 10 11 12 13 14 15 16 17 18 19 20 21 22 23 24 25 26 27 28 29 30 31
000
FTUS42 KMHX 131200 AAA
TAFOAJ
TAF AMD
KOAJ 131207Z 1312/1412 00000KT 1/4SM FG OVC002
      TEMPO 1312/1314 2SM BR BKN004
     FM131400 VRB04KT P6SM VCSH OVC020
     FM131800 21005KT P6SM VCTS BKN035CB
      TEMPO 1320/1324 3SM TSRA BKN020CB
     FM140000 19006KT P6SM VCTS OVC035CB
      TEMPO 1400/1404 2SM TSRA OVC020CB
     FM140600 36003KT 2SM BR OVC007
      AMD LTD TO CLD VIS AND WIND=

USA.gov is the U.S. government's official web portal to all federal, state and local government web resources and services.